createdAt,value
2018-05-31T00:00:56.405Z,101311.83
2018-05-31T00:03:24.800Z,101307.92
2018-05-31T00:05:53.135Z,101311.01
2018-05-31T00:08:21.507Z,101295.42
2018-05-31T00:10:49.868Z,101298.17
2018-05-31T00:13:18.227Z,101292.33
2018-05-31T00:15:46.879Z,101289.84
2018-05-31T00:18:15.232Z,101287.47
2018-05-31T00:20:43.620Z,101283.14
2018-05-31T00:23:12.752Z,101277.70
2018-05-31T00:25:41.159Z,101271.45
2018-05-31T00:28:10.265Z,101265.13
2018-05-31T00:30:39.430Z,101268.02
2018-05-31T00:33:07.753Z,101256.55
2018-05-31T00:35:36.103Z,101258.09
2018-05-31T00:38:04.568Z,101254.72
2018-05-31T00:40:33.030Z,101254.44
2018-05-31T00:43:01.512Z,101252.55
2018-05-31T00:45:30.151Z,101255.50
2018-05-31T00:47:58.491Z,101255.16
2018-05-31T00:50:26.858Z,101259.88
2018-05-31T00:52:55.476Z,101255.62
2018-05-31T00:55:42.192Z,101250.98
2018-05-31T00:58:10.717Z,101260.46
2018-05-31T01:00:39.074Z,101253.20
2018-05-31T01:03:07.479Z,101254.66
2018-05-31T01:05:35.867Z,101250.65
2018-05-31T01:08:04.384Z,101247.77
2018-05-31T01:10:32.707Z,101245.83
2018-05-31T01:13:01.059Z,101255.56
2018-05-31T01:15:29.531Z,101248.16
2018-05-31T01:17:57.853Z,101257.39
2018-05-31T01:20:26.739Z,101257.77
2018-05-31T01:22:55.158Z,101255.73
2018-05-31T01:25:25.247Z,101257.70
2018-05-31T01:27:53.616Z,101249.75
2018-05-31T01:30:21.975Z,101258.25
2018-05-31T01:32:50.971Z,101255.66
2018-05-31T01:35:19.335Z,101251.47
2018-05-31T01:37:48.737Z,101250.92
2018-05-31T01:40:17.299Z,101256.62
2018-05-31T01:42:45.947Z,101259.58
2018-05-31T01:45:14.417Z,101259.70
2018-05-31T01:47:43.087Z,101260.91
2018-05-31T01:50:11.622Z,101261.68
2018-05-31T01:52:40.000Z,101269.41
2018-05-31T01:55:08.332Z,101266.92
2018-05-31T01:57:37.007Z,101266.30
2018-05-31T02:00:05.732Z,101262.41
2018-05-31T02:02:34.102Z,101261.23
2018-05-31T02:05:02.754Z,101262.89
2018-05-31T02:07:31.973Z,101265.60
2018-05-31T02:10:00.339Z,101251.77
2018-05-31T02:12:29.090Z,101253.27
2018-05-31T02:14:57.428Z,101256.80
2018-05-31T02:17:25.896Z,101263.87
2018-05-31T02:19:54.542Z,101270.56
2018-05-31T02:22:23.080Z,101281.53
2018-05-31T02:24:51.444Z,101274.41
2018-05-31T02:27:20.209Z,101281.30
2018-05-31T02:29:48.692Z,101284.94
2018-05-31T02:32:17.811Z,101289.38
2018-05-31T02:34:46.323Z,101294.84
2018-05-31T02:37:14.657Z,101295.71
2018-05-31T02:39:44.044Z,101304.33
2018-05-31T02:42:12.560Z,101303.45
2018-05-31T02:44:40.994Z,101302.16
2018-05-31T02:47:09.719Z,101310.84
2018-05-31T02:49:38.587Z,101313.86
2018-05-31T02:52:07.071Z,101308.47
2018-05-31T02:54:35.542Z,101308.28
2018-05-31T02:57:04.696Z,101305.26
2018-05-31T02:59:33.152Z,101301.64
2018-05-31T03:02:01.471Z,101306.55
2018-05-31T03:04:29.830Z,101310.06
2018-05-31T03:06:58.213Z,101298.16
2018-05-31T03:09:26.667Z,101294.98
2018-05-31T03:11:55.549Z,101298.92
2018-05-31T03:14:23.958Z,101294.63
2018-05-31T03:16:52.302Z,101294.08
2018-05-31T03:19:21.446Z,101291.77
2018-05-31T03:21:49.792Z,101296.88
2018-05-31T03:24:18.191Z,101295.61
2018-05-31T03:26:46.608Z,101299.22
2018-05-31T03:29:14.953Z,101296.88
2018-05-31T03:31:43.432Z,101299.63
2018-05-31T03:34:12.491Z,101303.34
2018-05-31T03:36:40.816Z,101305.58
2018-05-31T03:39:09.226Z,101309.67
2018-05-31T03:41:37.779Z,101302.72
2018-05-31T03:44:06.116Z,101299.41
2018-05-31T03:46:35.498Z,101294.30
2018-05-31T03:49:04.049Z,101291.44
2018-05-31T03:51:32.394Z,101293.02
2018-05-31T03:54:00.707Z,101286.32
2018-05-31T03:56:29.636Z,101282.90
2018-05-31T03:58:57.964Z,101288.35
2018-05-31T04:01:26.320Z,101290.51
2018-05-31T04:03:54.768Z,101300.52
2018-05-31T04:06:23.077Z,101305.07
2018-05-31T04:08:51.419Z,101303.02
2018-05-31T04:11:19.755Z,101315.80
2018-05-31T04:13:48.257Z,101306.02
2018-05-31T04:16:16.900Z,101310.63
2018-05-31T04:18:46.405Z,101310.49
2018-05-31T04:21:14.746Z,101302.12
2018-05-31T04:23:43.087Z,101309.28
2018-05-31T04:26:11.462Z,101313.20
2018-05-31T04:28:39.817Z,101314.80
2018-05-31T04:31:08.918Z,101317.06
2018-05-31T04:38:04.362Z,101312.94
2018-05-31T04:40:33.827Z,101308.77
2018-05-31T04:43:02.310Z,101307.55
2018-05-31T04:45:30.652Z,101302.63
2018-05-31T04:47:59.815Z,101302.58
2018-05-31T04:50:29.223Z,101307.87
2018-05-31T04:52:57.593Z,101303.68
2018-05-31T04:55:26.836Z,101313.56
2018-05-31T04:57:55.161Z,101322.39
2018-05-31T05:00:23.507Z,101317.86
2018-05-31T05:02:51.897Z,101318.86
2018-05-31T05:05:20.223Z,101320.01
2018-05-31T05:07:48.580Z,101321.76
2018-05-31T05:10:16.959Z,101325.16
2018-05-31T05:12:46.156Z,101321.66
2018-05-31T05:15:14.463Z,101321.61
2018-05-31T05:17:43.336Z,101324.31
2018-05-31T05:20:11.665Z,101328.47
2018-05-31T05:22:40.018Z,101329.73
2018-05-31T05:25:08.372Z,101327.69
2018-05-31T05:27:36.697Z,101335.58
2018-05-31T05:30:05.024Z,101327.76
2018-05-31T05:32:34.179Z,101327.78
2018-05-31T05:35:02.474Z,101324.23
2018-05-31T05:37:30.867Z,101328.70
2018-05-31T05:40:00.169Z,101323.77
2018-05-31T05:42:29.347Z,101325.66
2018-05-31T05:44:57.756Z,101328.47
2018-05-31T05:47:27.052Z,101330.16
2018-05-31T05:49:56.279Z,101335.09
2018-05-31T05:52:24.715Z,101331.91
2018-05-31T05:54:53.207Z,101333.16
2018-05-31T05:57:21.631Z,101335.28
2018-05-31T05:59:50.076Z,101327.86
2018-05-31T06:02:18.959Z,101329.68
2018-05-31T06:04:48.170Z,101338.46
2018-05-31T06:07:16.573Z,101332.84
2018-05-31T06:09:45.020Z,101339.34
2018-05-31T06:12:13.413Z,101339.91
2018-05-31T06:14:41.780Z,101344.39
2018-05-31T06:17:10.241Z,101341.28
2018-05-31T06:19:38.743Z,101345.64
2018-05-31T06:22:07.171Z,101351.46
2018-05-31T06:24:35.895Z,101348.74
2018-05-31T06:27:04.301Z,101347.86
2018-05-31T06:29:32.789Z,101345.06
2018-05-31T06:32:01.426Z,101354.72
2018-05-31T06:34:29.948Z,101352.03
2018-05-31T06:36:58.432Z,101348.73
2018-05-31T06:39:26.879Z,101347.34
2018-05-31T06:45:44.467Z,101345.52
2018-05-31T06:48:13.656Z,101352.64
2018-05-31T06:50:42.179Z,101354.33
2018-05-31T06:53:10.594Z,101353.18
2018-05-31T06:55:39.065Z,101353.56
2018-05-31T06:58:07.479Z,101349.98
2018-05-31T07:00:35.963Z,101352.06
2018-05-31T07:03:05.085Z,101349.98
2018-05-31T07:05:34.260Z,101355.18
2018-05-31T07:08:02.835Z,101362.97
2018-05-31T07:10:31.988Z,101360.47
2018-05-31T07:13:00.561Z,101356.50
2018-05-31T07:15:29.105Z,101363.26
2018-05-31T07:17:57.528Z,101361.89
2018-05-31T07:20:25.906Z,101365.40
2018-05-31T07:22:54.345Z,101357.83
2018-05-31T07:25:23.632Z,101362.77
2018-05-31T07:27:52.017Z,101363.27
2018-05-31T07:30:20.924Z,101361.81
2018-05-31T07:32:49.263Z,101360.31
2018-05-31T07:35:17.594Z,101370.75
2018-05-31T07:37:46.728Z,101362.61
2018-05-31T07:40:15.057Z,101356.94
2018-05-31T07:42:43.412Z,101363.19
2018-05-31T07:45:12.534Z,101358.69
2018-05-31T07:47:41.658Z,101359.23
2018-05-31T07:50:09.999Z,101355.08
2018-05-31T07:52:38.758Z,101359.06
2018-05-31T07:55:07.108Z,101359.96
2018-05-31T07:57:35.437Z,101360.91
2018-05-31T08:00:03.784Z,101365.03
2018-05-31T08:02:32.098Z,101366.62
2018-05-31T08:05:00.413Z,101365.23
2018-05-31T08:07:29.538Z,101370.31
2018-05-31T08:09:57.874Z,101376.59
2018-05-31T08:12:26.250Z,101371.56
2018-05-31T08:14:55.858Z,101369.03
2018-05-31T08:17:24.191Z,101370.45
2018-05-31T08:19:52.530Z,101377.69
2018-05-31T08:22:21.652Z,101372.67
2018-05-31T08:24:49.983Z,101378.44
2018-05-31T08:27:18.315Z,101378.86
2018-05-31T08:29:46.685Z,101380.92
2018-05-31T08:32:15.021Z,101377.41
2018-05-31T08:34:43.347Z,101376.58
2018-05-31T08:37:11.983Z,101382.92
2018-05-31T08:39:40.328Z,101380.66
2018-05-31T08:42:08.669Z,101369.20
2018-05-31T08:44:37.050Z,101377.59
2018-05-31T08:50:44.168Z,101379.95
2018-05-31T08:53:12.571Z,101379.41
2018-05-31T08:55:41.695Z,101378.59
2018-05-31T08:58:10.586Z,101379.55
2018-05-31T09:00:38.960Z,101381.03
2018-05-31T09:03:07.318Z,101377.73
2018-05-31T09:05:35.718Z,101371.77
2018-05-31T09:08:04.044Z,101383.00
2018-05-31T09:10:32.379Z,101382.98
2018-05-31T09:13:00.725Z,101370.36
2018-05-31T09:15:29.037Z,101369.88
2018-05-31T09:17:57.345Z,101374.50
2018-05-31T09:20:26.218Z,101371.74
2018-05-31T09:22:54.513Z,101369.58
2018-05-31T09:25:22.874Z,101368.10
2018-05-31T09:27:51.977Z,101365.48
2018-05-31T09:30:21.068Z,101366.47
2018-05-31T09:32:49.413Z,101366.77
2018-05-31T09:35:17.795Z,101368.50
2018-05-31T09:37:46.132Z,101367.33
2018-05-31T09:40:14.533Z,101359.97
2018-05-31T09:42:43.910Z,101361.57
2018-05-31T09:45:12.440Z,101353.92
2018-05-31T09:47:40.864Z,101354.66
2018-05-31T09:50:09.298Z,101356.09
2018-05-31T09:52:37.670Z,101355.05
2018-05-31T09:55:06.022Z,101355.92
2018-05-31T09:57:34.363Z,101355.67
2018-05-31T10:00:02.701Z,101352.70
2018-05-31T10:02:31.016Z,101340.23
2018-05-31T10:04:59.616Z,101336.14
2018-05-31T10:07:28.720Z,101335.28
2018-05-31T10:09:57.801Z,101332.19
2018-05-31T10:12:26.923Z,101331.20
2018-05-31T10:14:55.261Z,101330.38
2018-05-31T10:17:23.602Z,101328.11
2018-05-31T10:19:51.985Z,101336.10
2018-05-31T10:22:20.325Z,101327.84
2018-05-31T10:24:48.714Z,101326.92
2018-05-31T10:27:17.386Z,101327.42
2018-05-31T10:29:46.499Z,101334.95
2018-05-31T10:32:14.824Z,101335.14
2018-05-31T10:34:43.258Z,101331.78
2018-05-31T10:37:11.619Z,101317.89
2018-05-31T10:39:40.724Z,101325.36
2018-05-31T10:42:09.876Z,101322.41
2018-05-31T10:44:38.194Z,101343.41
2018-05-31T10:47:07.282Z,101321.13
2018-05-31T10:49:36.691Z,101324.52
2018-05-31T10:52:05.025Z,101321.59
2018-05-31T10:54:33.381Z,101317.97
2018-05-31T10:57:01.778Z,101319.48
2018-05-31T10:59:30.136Z,101319.60
2018-05-31T11:01:58.470Z,101315.80
2018-05-31T11:04:26.817Z,101314.13
2018-05-31T11:06:55.162Z,101314.92
2018-05-31T11:09:23.501Z,101315.41
2018-05-31T11:11:52.122Z,101302.45
2018-05-31T11:14:20.470Z,101303.38
2018-05-31T11:16:48.817Z,101307.28
2018-05-31T11:19:17.151Z,101313.62
2018-05-31T11:21:46.360Z,101301.20
2018-05-31T11:24:14.704Z,101298.37
2018-05-31T11:26:43.075Z,101298.64
2018-05-31T11:29:11.507Z,101300.78
2018-05-31T11:31:40.555Z,101305.28
2018-05-31T11:34:09.088Z,101303.71
2018-05-31T11:36:37.419Z,101294.42
2018-05-31T11:39:05.741Z,101283.17
2018-05-31T11:41:34.122Z,101298.92
2018-05-31T11:44:02.481Z,101298.33
2018-05-31T11:46:30.865Z,101287.97
2018-05-31T11:48:59.256Z,101286.25
2018-05-31T11:51:27.609Z,101283.29
2018-05-31T11:53:56.725Z,101280.00
2018-05-31T11:56:25.170Z,101275.67
2018-05-31T11:58:53.467Z,101275.61
2018-05-31T12:01:22.599Z,101272.23
2018-05-31T12:03:51.007Z,101266.70
2018-05-31T12:06:19.314Z,101279.02
2018-05-31T12:08:48.446Z,101263.09
2018-05-31T12:11:16.820Z,101268.51
2018-05-31T12:13:45.420Z,101260.59
2018-05-31T12:16:13.959Z,101271.20
2018-05-31T12:18:42.786Z,101261.54
2018-05-31T12:21:11.106Z,101261.04
2018-05-31T12:23:39.440Z,101262.41
2018-05-31T12:26:07.787Z,101255.30
2018-05-31T12:28:36.874Z,101259.20
2018-05-31T12:31:05.966Z,101254.34
2018-05-31T12:33:34.367Z,101255.55
2018-05-31T12:36:02.731Z,101255.28
2018-05-31T12:38:31.847Z,101247.64
2018-05-31T12:41:00.398Z,101251.64
2018-05-31T12:43:28.754Z,101244.29
2018-05-31T12:45:57.087Z,101256.78
2018-05-31T12:48:25.440Z,101242.69
2018-05-31T12:50:53.750Z,101242.80
2018-05-31T12:53:22.151Z,101237.63
2018-05-31T12:55:50.545Z,101242.36
2018-05-31T12:58:18.860Z,101246.70
2018-05-31T13:00:47.975Z,101238.08
2018-05-31T13:03:16.720Z,101240.81
2018-05-31T13:05:45.034Z,101235.14
2018-05-31T13:08:14.143Z,101241.27
2018-05-31T13:10:42.514Z,101242.98
2018-05-31T13:13:11.610Z,101246.48
2018-05-31T13:15:40.686Z,101241.47
2018-05-31T13:18:09.803Z,101239.98
2018-05-31T13:20:38.157Z,101237.31
2018-05-31T13:23:06.540Z,101235.42
2018-05-31T13:25:36.015Z,101230.09
2018-05-31T13:28:04.343Z,101227.73
2018-05-31T13:30:34.386Z,101227.86
2018-05-31T13:33:02.816Z,101229.61
2018-05-31T13:35:31.132Z,101223.34
2018-05-31T13:37:59.455Z,101219.20
2018-05-31T13:40:27.861Z,101221.91
2018-05-31T13:42:56.263Z,101217.73
2018-05-31T13:45:25.896Z,101214.62
2018-05-31T13:47:54.432Z,101213.12
2018-05-31T13:50:23.540Z,101212.34
2018-05-31T13:52:52.623Z,101213.09
2018-05-31T13:55:21.753Z,101214.55
2018-05-31T13:57:50.098Z,101213.27
2018-05-31T14:00:18.453Z,101216.27
2018-05-31T14:02:46.811Z,101204.52
2018-05-31T14:05:15.147Z,101196.27
2018-05-31T14:07:44.224Z,101199.94
2018-05-31T14:10:12.813Z,101192.69
2018-05-31T14:12:41.190Z,101194.19
2018-05-31T14:15:10.320Z,101193.03
2018-05-31T14:17:38.662Z,101189.98
2018-05-31T14:20:07.809Z,101194.17
2018-05-31T14:22:36.153Z,101191.89
2018-05-31T14:25:04.500Z,101186.77
2018-05-31T14:27:32.852Z,101184.58
2018-05-31T14:30:02.274Z,101183.67
2018-05-31T14:32:30.724Z,101180.56
2018-05-31T14:34:59.101Z,101180.97
2018-05-31T14:37:27.450Z,101176.06
2018-05-31T14:39:55.819Z,101183.23
2018-05-31T14:42:24.898Z,101180.30
2018-05-31T14:44:53.279Z,101187.64
2018-05-31T14:47:21.676Z,101176.23
2018-05-31T14:49:50.864Z,101174.18
2018-05-31T14:52:19.265Z,101173.15
2018-05-31T14:54:48.925Z,101167.77
2018-05-31T14:57:17.445Z,101164.56
2018-05-31T14:59:45.925Z,101171.06
2018-05-31T15:02:14.284Z,101163.83
2018-05-31T15:04:42.674Z,101172.83
2018-05-31T15:07:11.165Z,101170.17
2018-05-31T15:09:39.547Z,101168.78
2018-05-31T15:12:07.919Z,101171.03
2018-05-31T15:14:36.314Z,101172.77
2018-05-31T15:17:05.902Z,101162.52
2018-05-31T15:19:34.299Z,101172.22
2018-05-31T15:22:03.422Z,101163.78
2018-05-31T15:24:31.907Z,101180.88
2018-05-31T15:27:00.342Z,101162.23
2018-05-31T15:29:28.709Z,101158.27
2018-05-31T15:31:57.244Z,101159.06
2018-05-31T15:34:25.681Z,101155.73
2018-05-31T15:36:54.194Z,101156.47
2018-05-31T15:39:24.209Z,101154.58
2018-05-31T15:41:53.487Z,101156.13
2018-05-31T15:44:21.866Z,101148.66
2018-05-31T15:46:50.352Z,101152.70
2018-05-31T15:49:18.727Z,101147.86
2018-05-31T15:51:47.307Z,101148.84
2018-05-31T15:54:15.804Z,101149.94
2018-05-31T15:56:45.090Z,101147.05
2018-05-31T15:59:13.481Z,101137.44
2018-05-31T16:01:42.377Z,101139.12
2018-05-31T16:04:16.666Z,101133.18
2018-05-31T16:06:45.169Z,101137.06
2018-05-31T16:09:13.753Z,101135.05
2018-05-31T16:11:42.145Z,101132.94
2018-05-31T16:14:11.340Z,101146.61
2018-05-31T16:16:39.807Z,101152.80
2018-05-31T16:19:08.232Z,101145.11
2018-05-31T16:21:36.858Z,101154.30
2018-05-31T16:24:05.255Z,101146.39
2018-05-31T16:26:33.570Z,101151.11
2018-05-31T16:29:01.939Z,101150.98
2018-05-31T16:31:31.005Z,101151.59
2018-05-31T16:33:59.343Z,101151.05
2018-05-31T16:36:27.708Z,101145.31
2018-05-31T16:38:56.075Z,101141.36
2018-05-31T16:41:24.387Z,101149.33
2018-05-31T16:43:53.143Z,101145.33
2018-05-31T16:46:21.472Z,101153.80
2018-05-31T16:48:49.819Z,101152.14
2018-05-31T16:51:18.176Z,101150.84
2018-05-31T16:53:46.506Z,101137.71
2018-05-31T16:56:14.815Z,101130.62
2018-05-31T16:58:43.923Z,101135.37
2018-05-31T17:01:13.024Z,101139.55
2018-05-31T17:03:41.351Z,101140.42
2018-05-31T17:06:10.267Z,101142.27
2018-05-31T17:08:38.585Z,101147.42
2018-05-31T17:11:06.917Z,101155.28
2018-05-31T17:13:35.281Z,101158.35
2018-05-31T17:16:03.624Z,101159.67
2018-05-31T17:18:31.961Z,101161.72
2018-05-31T17:21:00.352Z,101158.70
2018-05-31T17:23:28.705Z,101164.66
2018-05-31T17:25:57.040Z,101165.16
2018-05-31T17:28:25.627Z,101158.50
2018-05-31T17:30:53.936Z,101154.70
2018-05-31T17:33:22.232Z,101152.00
2018-05-31T17:35:50.584Z,101154.70
2018-05-31T17:38:18.923Z,101155.86
2018-05-31T17:40:47.241Z,101156.23
2018-05-31T17:43:15.622Z,101155.95
2018-05-31T17:45:43.953Z,101163.28
2018-05-31T17:48:12.303Z,101162.80
2018-05-31T17:50:41.107Z,101164.05
2018-05-31T17:53:09.591Z,101157.04
2018-05-31T17:55:37.914Z,101160.69
2018-05-31T17:58:06.291Z,101163.19
2018-05-31T18:00:34.675Z,101164.20
2018-05-31T18:03:03.020Z,101161.88
2018-05-31T18:05:31.396Z,101166.43
2018-05-31T18:07:59.714Z,101167.57
2018-05-31T18:10:29.028Z,101171.38
2018-05-31T18:12:57.711Z,101172.09
2018-05-31T18:15:26.042Z,101170.56
2018-05-31T18:17:55.141Z,101172.90
2018-05-31T18:20:23.522Z,101174.33
2018-05-31T18:22:51.849Z,101181.97
2018-05-31T18:25:20.153Z,101181.45
2018-05-31T18:27:49.295Z,101182.54
2018-05-31T18:30:17.642Z,101185.16
2018-05-31T18:32:46.840Z,101192.08
2018-05-31T18:35:16.024Z,101194.43
2018-05-31T18:37:44.393Z,101190.00
2018-05-31T18:40:12.707Z,101192.50
2018-05-31T18:42:41.210Z,101188.19
2018-05-31T18:45:09.531Z,101190.83
2018-05-31T18:47:37.912Z,101197.06
2018-05-31T18:50:06.291Z,101201.62
2018-05-31T18:52:34.639Z,101205.57
2018-05-31T18:55:02.953Z,101197.59
2018-05-31T18:57:31.803Z,101204.75
2018-05-31T19:00:00.170Z,101207.30
2018-05-31T19:02:28.521Z,101206.47
2018-05-31T19:04:57.642Z,101207.54
2018-05-31T19:07:26.770Z,101211.53
2018-05-31T19:09:55.096Z,101212.70
2018-05-31T19:12:28.872Z,101217.31
2018-05-31T19:14:57.219Z,101222.18
2018-05-31T19:17:25.545Z,101218.02
2018-05-31T19:19:55.543Z,101223.63
2018-05-31T19:22:23.887Z,101220.57
2018-05-31T19:24:57.650Z,101223.64
2018-05-31T19:27:26.741Z,101222.91
2018-05-31T19:30:00.512Z,101224.02
2018-05-31T19:32:28.912Z,101227.55
2018-05-31T19:34:57.170Z,101229.88
2018-05-31T19:37:25.696Z,101226.72
2018-05-31T19:39:54.073Z,101235.93
2018-05-31T19:42:28.017Z,101237.85
2018-05-31T19:44:56.321Z,101240.67
2018-05-31T19:47:24.696Z,101240.33
2018-05-31T19:49:53.046Z,101242.87
2018-05-31T19:52:26.822Z,101239.42
2018-05-31T19:54:55.780Z,101237.01
2018-05-31T19:57:24.105Z,101249.70
2018-05-31T20:03:10.463Z,101253.91
2018-05-31T20:05:38.891Z,101257.06
2018-05-31T20:08:07.328Z,101261.77
2018-05-31T20:10:35.728Z,101263.64
2018-05-31T20:13:04.241Z,101260.30
2018-05-31T20:15:33.477Z,101265.43
2018-05-31T20:18:01.901Z,101263.96
2018-05-31T20:20:30.368Z,101268.09
2018-05-31T20:22:58.771Z,101268.73
2018-05-31T20:25:27.134Z,101268.98
2018-05-31T20:27:55.615Z,101263.90
2018-05-31T20:30:24.104Z,101261.19
2018-05-31T20:32:52.781Z,101264.22
2018-05-31T20:35:21.885Z,101265.15
2018-05-31T20:37:50.346Z,101258.31
2018-05-31T20:40:18.832Z,101262.20
2018-05-31T20:42:47.293Z,101262.70
2018-05-31T20:45:15.713Z,101260.60
2018-05-31T20:47:44.083Z,101258.83
2018-05-31T20:50:12.544Z,101257.71
2018-05-31T20:52:40.954Z,101262.44
2018-05-31T20:55:09.405Z,101260.11
2018-05-31T20:57:38.176Z,101264.59
2018-05-31T21:00:06.495Z,101259.34
2018-05-31T21:02:34.872Z,101266.99
2018-05-31T21:05:03.331Z,101263.63
2018-05-31T21:07:31.689Z,101263.87
2018-05-31T21:10:00.065Z,101263.13
2018-05-31T21:12:28.440Z,101264.98
2018-05-31T21:14:56.857Z,101264.55
2018-05-31T21:17:25.170Z,101269.54
2018-05-31T21:19:53.887Z,101264.80
2018-05-31T21:22:22.492Z,101265.25
2018-05-31T21:24:51.494Z,101265.11
2018-05-31T21:27:20.174Z,101263.23
2018-05-31T21:29:48.531Z,101262.55
2018-05-31T21:32:16.907Z,101265.16
2018-05-31T21:34:45.952Z,101263.39
2018-05-31T21:37:14.296Z,101255.61
2018-05-31T21:39:42.646Z,101259.09
2018-05-31T21:42:11.237Z,101265.38
2018-05-31T21:44:39.554Z,101264.98
2018-05-31T21:47:07.906Z,101266.16
2018-05-31T21:49:36.269Z,101270.98
2018-05-31T21:52:04.621Z,101271.96
2018-05-31T21:54:33.729Z,101268.88
2018-05-31T21:57:02.863Z,101266.81
2018-05-31T21:59:31.198Z,101272.48
2018-05-31T22:01:59.534Z,101269.06
2018-05-31T22:04:27.967Z,101264.62
2018-05-31T22:06:56.300Z,101260.75
2018-05-31T22:09:24.668Z,101262.48
2018-05-31T22:11:53.598Z,101264.56
2018-05-31T22:14:21.914Z,101268.38
2018-05-31T22:16:50.270Z,101263.52
2018-05-31T22:19:19.445Z,101262.42
2018-05-31T22:21:47.728Z,101263.80
2018-05-31T22:24:16.045Z,101257.70
2018-05-31T22:26:44.887Z,101263.91
2018-05-31T22:29:13.228Z,101262.97
2018-05-31T22:31:41.553Z,101256.12
2018-05-31T22:34:09.906Z,101263.84
2018-05-31T22:36:38.255Z,101263.06
2018-05-31T22:39:06.587Z,101266.25
2018-05-31T22:41:34.958Z,101271.33
2018-05-31T22:44:03.271Z,101264.34
2018-05-31T22:46:31.591Z,101268.28
2018-05-31T22:49:00.100Z,101265.07
2018-05-31T22:51:28.424Z,101265.52
2018-05-31T22:53:56.731Z,101265.77
2018-05-31T22:56:25.090Z,101274.42
2018-05-31T22:58:54.328Z,101275.98
2018-05-31T23:01:22.637Z,101276.55
2018-05-31T23:03:51.769Z,101279.83
2018-05-31T23:06:20.117Z,101278.11
2018-05-31T23:08:48.426Z,101289.77
2018-05-31T23:11:17.136Z,101288.13
2018-05-31T23:13:45.431Z,101291.28
2018-05-31T23:16:13.730Z,101279.97
2018-05-31T23:18:42.083Z,101283.30
2018-05-31T23:21:10.423Z,101273.71
2018-05-31T23:23:38.773Z,101282.62
2018-05-31T23:26:07.101Z,101286.57
2018-05-31T23:28:35.420Z,101278.59
2018-05-31T23:31:04.510Z,101277.28
2018-05-31T23:33:33.773Z,101277.11
2018-05-31T23:36:02.080Z,101278.63
2018-05-31T23:38:30.379Z,101280.59
2018-05-31T23:40:59.522Z,101278.66
2018-05-31T23:43:27.829Z,101272.23
2018-05-31T23:45:56.181Z,101272.48
2018-05-31T23:48:25.308Z,101268.95
2018-05-31T23:50:54.419Z,101266.02
2018-05-31T23:53:23.498Z,101257.37
2018-05-31T23:55:51.975Z,101253.63
2018-05-31T23:58:20.305Z,101257.32
